Time,TemperatureF,DewpointF,PressureIn,WindDirection,WindDirectionDegrees,WindSpeedMPH,WindSpeedGustMPH,Humidity,HourlyPrecipIn,Conditions,Clouds,dailyrainin,SolarRadiationWatts/m^2,SoftwareType,DateUTC
2013-07-10 00:03:00,65.7,62.4,29.81,WNW,294,4.0,7.0,89,0.00,,OVC,0.00,0.00,VWS V14.01,2013-07-10 05:03:00,
2013-07-10 00:09:00,65.6,62.6,29.81,NW,321,2.0,12.0,90,0.00,,OVC,0.00,0.00,VWS V14.01,2013-07-10 05:09:00,
2013-07-10 00:14:00,65.4,62.4,29.82,North,5,6.0,7.0,90,0.00,,OVC,0.00,0.00,VWS V14.01,2013-07-10 05:14:00,
2013-07-10 00:19:00,65.2,61.9,29.82,North,360,3.0,6.0,89,0.00,,OVC,0.00,0.00,VWS V14.01,2013-07-10 05:19:00,
2013-07-10 00:24:00,65.1,61.8,29.82,WSW,255,2.0,4.0,89,0.00,,OVC,0.00,0.00,VWS V14.01,2013-07-10 05:24:00,
2013-07-10 00:29:00,65.0,61.7,29.82,North,360,6.0,10.0,89,0.00,,OVC,0.00,0.00,VWS V14.01,2013-07-10 05:29:00,
2013-07-10 00:34:00,64.9,61.6,29.81,South,177,0.0,5.0,89,0.00,,OVC,0.00,0.00,VWS V14.01,2013-07-10 05:34:00,
2013-07-10 00:39:00,64.9,61.9,29.82,North,9,0.0,8.0,90,0.00,,OVC,0.00,0.00,VWS V14.01,2013-07-10 05:39:00,
2013-07-10 00:44:00,64.9,61.6,29.82,North,360,2.0,7.0,89,0.00,,OVC,0.00,0.00,VWS V14.01,2013-07-10 05:44:00,
2013-07-10 00:49:00,64.8,61.8,29.82,West,267,2.0,9.0,90,0.00,,OVC,0.00,0.00,VWS V14.01,2013-07-10 05:49:00,
2013-07-10 00:54:00,64.6,61.3,29.82,WNW,290,1.0,7.0,89,0.00,,OVC,0.00,0.00,VWS V14.01,2013-07-10 05:54:00,
2013-07-10 00:59:00,64.4,60.8,29.82,NNW,346,0.0,14.0,88,0.00,,OVC,0.00,0.00,VWS V14.01,2013-07-10 05:59:00,
2013-07-10 01:04:00,64.3,60.7,29.82,NNE,15,0.0,6.0,88,0.00,,OVC,0.00,0.00,VWS V14.01,2013-07-10 06:04:00,
2013-07-10 01:09:00,64.1,60.2,29.82,NNE,20,3.0,8.0,87,0.00,,OVC,0.00,0.00,VWS V14.01,2013-07-10 06:09:00,
2013-07-10 01:14:00,64.0,60.1,29.82,NW,308,4.0,7.0,87,0.00,,OVC,0.00,0.00,VWS V14.01,2013-07-10 06:14:00,
2013-07-10 01:19:00,63.9,60.3,29.82,SW,236,3.0,7.0,88,0.00,,OVC,0.00,0.00,VWS V14.01,2013-07-10 06:19:00,
2013-07-10 01:24:00,63.7,59.8,29.82,NW,325,4.0,4.0,87,0.00,,OVC,0.00,0.00,VWS V14.01,2013-07-10 06:24:00,
2013-07-10 01:29:00,63.6,59.7,29.82,NW,320,0.0,3.0,87,0.00,,OVC,0.00,0.00,VWS V14.01,2013-07-10 06:29:00,
2013-07-10 01:34:00,63.6,60.0,29.82,NW,316,1.0,2.0,88,0.00,,OVC,0.00,0.00,VWS V14.01,2013-07-10 06:34:00,
2013-07-10 01:39:00,63.5,59.9,29.82,West,275,0.0,4.0,88,0.00,,OVC,0.00,0.00,VWS V14.01,2013-07-10 06:39:00,
2013-07-10 01:44:00,63.4,59.8,29.82,West,273,3.0,3.0,88,0.00,,OVC,0.00,0.00,VWS V14.01,2013-07-10 06:44:00,
2013-07-10 01:49:00,63.4,59.8,29.82,NW,304,2.0,3.0,88,0.00,,OVC,0.00,0.00,VWS V14.01,2013-07-10 06:49:00,
2013-07-10 01:54:00,63.2,59.9,29.83,West,277,2.0,7.0,89,0.00,,OVC,0.00,0.00,VWS V14.01,2013-07-10 06:54:00,
2013-07-10 01:59:00,63.2,59.9,29.83,West,261,0.0,3.0,89,0.00,,OVC,0.00,0.00,VWS V14.01,2013-07-10 06:59:00,
2013-07-10 02:04:00,63.1,59.8,29.83,West,280,3.0,5.0,89,0.00,,OVC,0.00,0.00,VWS V14.01,2013-07-10 07:04:00,
2013-07-10 02:09:00,63.0,59.7,29.83,WNW,288,0.0,4.0,89,0.00,,OVC,0.00,0.00,VWS V14.01,2013-07-10 07:09:00,
2013-07-10 02:14:00,62.9,59.6,29.83,NW,315,1.0,2.0,89,0.00,,OVC,0.00,0.00,VWS V14.01,2013-07-10 07:14:00,
2013-07-10 02:19:00,62.8,59.8,29.83,WNW,293,0.0,4.0,90,0.00,,OVC,0.00,0.00,VWS V14.01,2013-07-10 07:19:00,
2013-07-10 02:25:00,62.7,59.7,29.83,WNW,288,0.0,5.0,90,0.00,,OVC,0.00,0.00,VWS V14.01,2013-07-10 07:25:00,
2013-07-10 02:30:00,62.7,59.7,29.83,West,261,2.0,6.0,90,0.00,,OVC,0.00,0.00,VWS V14.01,2013-07-10 07:30:00,
2013-07-10 02:35:00,62.6,59.6,29.83,WNW,295,4.0,10.0,90,0.00,,OVC,0.00,0.00,VWS V14.01,2013-07-10 07:35:00,
2013-07-10 02:40:00,62.5,59.5,29.83,West,270,0.0,5.0,90,0.00,,OVC,0.00,0.00,VWS V14.01,2013-07-10 07:40:00,
2013-07-10 02:45:00,62.4,59.1,29.83,NW,310,2.0,6.0,89,0.00,,OVC,0.00,0.00,VWS V14.01,2013-07-10 07:45:00,
2013-07-10 02:50:00,62.3,59.0,29.83,NW,304,1.0,7.0,89,0.00,,OVC,0.00,0.00,VWS V14.01,2013-07-10 07:50:00,
2013-07-10 02:55:00,62.1,58.5,29.83,NW,310,1.0,3.0,88,0.00,,OVC,0.00,0.00,VWS V14.01,2013-07-10 07:55:00,
2013-07-10 03:00:00,61.9,58.0,29.83,WNW,285,3.0,7.0,87,0.00,,OVC,0.00,0.00,VWS V14.01,2013-07-10 08:00:00,
2013-07-10 03:05:00,61.8,57.9,29.83,WNW,288,4.0,6.0,87,0.00,,OVC,0.00,0.00,VWS V14.01,2013-07-10 08:05:00,
2013-07-10 03:10:00,61.8,57.9,29.84,West,279,5.0,7.0,87,0.00,,OVC,0.00,0.00,VWS V14.01,2013-07-10 08:10:00,
2013-07-10 03:15:00,61.7,57.8,29.84,West,279,3.0,8.0,87,0.00,,OVC,0.00,0.00,VWS V14.01,2013-07-10 08:15:00,
2013-07-10 03:20:00,61.6,57.7,29.84,West,281,5.0,8.0,87,0.00,,OVC,0.00,0.00,VWS V14.01,2013-07-10 08:20:00,
2013-07-10 03:25:00,61.5,57.6,29.84,WNW,282,4.0,10.0,87,0.00,,OVC,0.00,0.00,VWS V14.01,2013-07-10 08:25:00,
2013-07-10 03:31:00,61.4,57.5,29.84,West,277,3.0,6.0,87,0.00,,OVC,0.00,0.00,VWS V14.01,2013-07-10 08:31:00,
2013-07-10 03:36:00,61.3,57.1,29.85,West,273,3.0,7.0,86,0.00,,OVC,0.00,0.00,VWS V14.01,2013-07-10 08:36:00,
2013-07-10 03:41:00,61.2,57.3,29.85,West,274,5.0,10.0,87,0.00,,OVC,0.00,0.00,VWS V14.01,2013-07-10 08:41:00,
2013-07-10 03:46:00,61.1,57.2,29.84,West,271,0.0,7.0,87,0.00,,OVC,0.00,0.00,VWS V14.01,2013-07-10 08:46:00,
2013-07-10 03:51:00,60.9,56.7,29.84,NW,321,3.0,8.0,86,0.00,,OVC,0.00,0.00,VWS V14.01,2013-07-10 08:51:00,
2013-07-10 03:56:00,60.8,56.9,29.85,West,275,6.0,10.0,87,0.00,,OVC,0.00,0.00,VWS V14.01,2013-07-10 08:56:00,
2013-07-10 04:01:00,60.7,56.8,29.85,West,277,5.0,6.0,87,0.00,,OVC,0.00,0.00,VWS V14.01,2013-07-10 09:01:00,
2013-07-10 04:06:00,60.6,56.7,29.85,WNW,285,6.0,8.0,87,0.00,,OVC,0.00,0.00,VWS V14.01,2013-07-10 09:06:00,
2013-07-10 04:11:00,60.5,56.6,29.85,West,265,0.0,5.0,87,0.00,,OVC,0.00,0.00,VWS V14.01,2013-07-10 09:11:00,
2013-07-10 04:16:00,60.4,56.8,29.85,West,260,6.0,9.0,88,0.00,,OVC,0.00,0.00,VWS V14.01,2013-07-10 09:16:00,
2013-07-10 04:21:00,60.4,56.8,29.85,West,280,2.0,8.0,88,0.00,,OVC,0.00,0.00,VWS V14.01,2013-07-10 09:21:00,
2013-07-10 04:26:00,60.3,56.7,29.85,West,277,6.0,7.0,88,0.00,,OVC,0.00,0.00,VWS V14.01,2013-07-10 09:26:00,
2013-07-10 04:31:00,60.2,57.0,29.86,WNW,289,4.0,7.0,89,0.00,,OVC,0.00,0.00,VWS V14.01,2013-07-10 09:31:00,
2013-07-10 04:36:00,60.0,56.4,29.86,WNW,288,7.0,8.0,88,0.00,,OVC,0.00,0.00,VWS V14.01,2013-07-10 09:36:00,
2013-07-10 04:41:00,59.9,56.3,29.86,West,259,3.0,6.0,88,0.00,,OVC,0.00,0.00,VWS V14.01,2013-07-10 09:41:00,
2013-07-10 04:46:00,59.9,56.7,29.87,West,280,6.0,8.0,89,0.00,,OVC,0.00,0.00,VWS V14.01,2013-07-10 09:46:00,
2013-07-10 04:51:00,59.8,56.6,29.87,WNW,287,5.0,11.0,89,0.00,,OVC,0.00,0.00,VWS V14.01,2013-07-10 09:51:00,
2013-07-10 04:56:00,59.7,56.5,29.87,West,259,5.0,9.0,89,0.00,,OVC,0.00,0.00,VWS V14.01,2013-07-10 09:56:00,
2013-07-10 05:01:00,59.5,56.3,29.87,West,269,3.0,8.0,89,0.00,,OVC,0.00,0.00,VWS V14.01,2013-07-10 10:01:00,
2013-07-10 05:06:00,59.3,56.1,29.87,West,275,6.0,6.0,89,0.00,,OVC,0.00,0.00,VWS V14.01,2013-07-10 10:06:00,
2013-07-10 05:11:00,59.2,56.0,29.87,West,278,2.0,8.0,89,0.00,,OVC,0.00,0.00,VWS V14.01,2013-07-10 10:11:00,
2013-07-10 05:16:00,59.1,55.9,29.87,WNW,287,6.0,7.0,89,0.00,,OVC,0.00,0.00,VWS V14.01,2013-07-10 10:16:00,
2013-07-10 05:21:00,59.0,55.8,29.88,West,263,3.0,8.0,89,0.00,,OVC,0.00,0.00,VWS V14.01,2013-07-10 10:21:00,
2013-07-10 05:26:00,59.0,55.8,29.88,West,275,5.0,9.0,89,0.00,,OVC,0.00,0.00,VWS V14.01,2013-07-10 10:26:00,
2013-07-10 05:31:00,59.0,56.1,29.88,NW,324,2.0,8.0,90,0.00,,OVC,0.00,5.00,VWS V14.01,2013-07-10 10:31:00,
2013-07-10 05:36:00,59.0,56.1,29.88,WNW,294,2.0,9.0,90,0.00,,OVC,0.00,7.00,VWS V14.01,2013-07-10 10:36:00,
2013-07-10 05:41:00,59.0,56.1,29.88,WNW,288,0.0,1.0,90,0.00,,OVC,0.00,11.00,VWS V14.01,2013-07-10 10:41:00,
2013-07-10 05:46:00,58.8,55.6,29.88,West,271,6.0,6.0,89,0.00,,OVC,0.00,12.00,VWS V14.01,2013-07-10 10:46:00,
2013-07-10 05:52:00,58.9,55.7,29.88,West,281,6.0,6.0,89,0.00,,OVC,0.00,14.00,VWS V14.01,2013-07-10 10:52:00,
2013-07-10 05:57:00,58.9,55.7,29.88,West,274,5.0,5.0,89,0.00,,OVC,0.00,18.00,VWS V14.01,2013-07-10 10:57:00,
2013-07-10 06:02:00,58.8,55.6,29.88,West,274,6.0,6.0,89,0.00,,OVC,0.00,19.00,VWS V14.01,2013-07-10 11:02:00,
2013-07-10 06:04:00,58.7,55.5,29.88,West,271,2.0,6.0,89,0.00,,OVC,0.00,21.00,VWS V14.01,2013-07-10 11:04:00,
2013-07-10 06:09:00,58.6,55.4,29.89,West,269,7.0,8.0,89,0.00,,OVC,0.00,23.00,VWS V14.01,2013-07-10 11:09:00,
2013-07-10 06:14:00,58.6,55.4,29.89,WNW,300,3.0,8.0,89,0.00,,OVC,0.00,25.00,VWS V14.01,2013-07-10 11:14:00,
2013-07-10 06:19:00,58.6,55.4,29.89,WNW,284,5.0,9.0,89,0.00,,OVC,0.00,28.00,VWS V14.01,2013-07-10 11:19:00,
2013-07-10 06:24:00,58.4,55.2,29.89,West,270,4.0,9.0,89,0.00,,OVC,0.00,30.00,VWS V14.01,2013-07-10 11:24:00,
2013-07-10 06:29:00,58.4,55.2,29.89,West,259,6.0,8.0,89,0.00,,OVC,0.00,32.00,VWS V14.01,2013-07-10 11:29:00,
2013-07-10 06:34:00,58.5,55.3,29.89,West,277,8.0,10.0,89,0.00,,OVC,0.00,35.00,VWS V14.01,2013-07-10 11:34:00,
2013-07-10 06:39:00,58.6,55.4,29.89,WNW,300,5.0,7.0,89,0.00,,OVC,0.00,35.00,VWS V14.01,2013-07-10 11:39:00,
2013-07-10 06:44:00,58.9,55.7,29.89,West,271,7.0,7.0,89,0.00,,OVC,0.00,40.00,VWS V14.01,2013-07-10 11:44:00,
2013-07-10 06:49:00,58.9,55.4,29.90,WSW,256,4.0,11.0,88,0.00,,OVC,0.00,40.00,VWS V14.01,2013-07-10 11:49:00,
2013-07-10 06:54:00,58.8,55.3,29.90,WNW,286,7.0,11.0,88,0.00,,OVC,0.00,44.00,VWS V14.01,2013-07-10 11:54:00,
2013-07-10 06:55:00,58.8,55.3,29.90,West,270,6.0,12.0,88,1.96,,SCT,0.00,44.00,VWS V14.01,2013-07-10 11:55:00,
2013-07-10 07:00:00,59.0,55.5,29.90,West,270,5.0,10.0,88,1.96,,SCT,0.00,46.00,VWS V14.01,2013-07-10 12:00:00,
2013-07-10 07:05:00,59.0,55.5,29.90,West,270,4.0,10.0,88,1.96,,SCT,0.00,48.00,VWS V14.01,2013-07-10 12:05:00,
2013-07-10 07:10:00,59.0,55.5,29.89,West,270,4.0,9.0,88,1.96,,SCT,0.00,51.00,VWS V14.01,2013-07-10 12:10:00,
2013-07-10 07:15:00,59.0,55.5,29.90,West,270,4.0,9.0,88,1.96,,SCT,0.00,52.00,VWS V14.01,2013-07-10 12:15:00,
2013-07-10 07:20:00,59.0,55.5,29.90,West,270,4.0,9.0,88,1.96,,SCT,0.00,56.00,VWS V14.01,2013-07-10 12:20:00,
2013-07-10 07:31:00,59.0,55.1,29.90,West,270,4.0,9.0,87,1.96,,SCT,0.00,59.00,VWS V14.01,2013-07-10 12:31:00,
2013-07-10 07:37:00,59.3,55.4,29.90,WNW,284,7.0,7.0,87,0.00,,FEW,0.00,79.00,VWS V14.01,2013-07-10 12:37:00,
2013-07-10 07:42:00,59.4,55.2,29.91,West,271,6.0,9.0,86,0.00,,FEW,0.00,79.00,VWS V14.01,2013-07-10 12:42:00,
2013-07-10 07:47:00,59.6,55.7,29.91,West,281,2.0,4.0,87,0.00,,FEW,0.00,109.00,VWS V14.01,2013-07-10 12:47:00,
2013-07-10 07:52:00,59.8,55.9,29.91,WNW,290,0.0,1.0,87,0.00,,FEW,0.00,118.00,VWS V14.01,2013-07-10 12:52:00,
2013-07-10 07:57:00,60.1,56.2,29.91,West,268,4.0,7.0,87,0.00,,FEW,0.00,123.00,VWS V14.01,2013-07-10 12:57:00,
2013-07-10 08:02:00,60.3,56.4,29.91,North,355,3.0,6.0,87,0.00,,FEW,0.00,153.00,VWS V14.01,2013-07-10 13:02:00,
2013-07-10 08:07:00,60.4,56.2,29.91,WNW,302,7.0,9.0,86,0.00,,SCT,0.00,162.00,VWS V14.01,2013-07-10 13:07:00,
2013-07-10 08:12:00,60.6,56.4,29.92,West,267,6.0,11.0,86,0.00,,SCT,0.00,163.00,VWS V14.01,2013-07-10 13:12:00,
2013-07-10 08:17:00,60.7,56.5,29.92,NW,304,5.0,7.0,86,0.00,,SCT,0.00,352.00,VWS V14.01,2013-07-10 13:17:00,
2013-07-10 08:22:00,60.7,56.2,29.91,West,275,3.0,3.0,85,0.00,,SCT,0.00,360.00,VWS V14.01,2013-07-10 13:22:00,
2013-07-10 08:27:00,60.8,56.3,29.92,NW,319,0.0,10.0,85,0.00,,SCT,0.00,346.00,VWS V14.01,2013-07-10 13:27:00,
2013-07-10 08:32:00,61.0,56.5,29.92,West,259,0.0,4.0,85,0.00,,SCT,0.00,162.00,VWS V14.01,2013-07-10 13:32:00,
2013-07-10 08:37:00,61.3,56.4,29.92,West,272,4.0,9.0,84,0.00,,SCT,0.00,274.00,VWS V14.01,2013-07-10 13:37:00,
2013-07-10 08:42:00,61.5,56.6,29.92,WNW,283,5.0,6.0,84,0.00,,SCT,0.00,417.00,VWS V14.01,2013-07-10 13:42:00,
2013-07-10 08:47:00,61.6,56.4,29.92,WSW,251,1.0,1.0,83,0.00,,SCT,0.00,441.00,VWS V14.01,2013-07-10 13:47:00,
2013-07-10 08:52:00,62.0,56.8,29.92,West,269,1.0,9.0,83,0.00,,SCT,0.00,522.00,VWS V14.01,2013-07-10 13:52:00,
2013-07-10 08:57:00,62.2,56.3,29.92,WSW,242,4.0,8.0,81,0.00,,SCT,0.00,496.00,VWS V14.01,2013-07-10 13:57:00,
2013-07-10 09:02:00,62.5,56.6,29.93,West,271,1.0,6.0,81,0.00,,SCT,0.00,492.00,VWS V14.01,2013-07-10 14:02:00,
2013-07-10 09:07:00,62.7,56.5,29.92,NNW,335,2.0,5.0,80,0.00,,SCT,0.00,541.00,VWS V14.01,2013-07-10 14:07:00,
2013-07-10 09:12:00,63.1,56.8,29.93,West,281,5.0,10.0,80,0.00,,SCT,0.00,622.00,VWS V14.01,2013-07-10 14:12:00,
2013-07-10 09:17:00,63.6,57.3,29.93,WNW,284,0.0,5.0,80,0.00,,SCT,0.00,638.00,VWS V14.01,2013-07-10 14:17:00,
2013-07-10 09:22:00,63.7,56.4,29.93,West,265,3.0,6.0,77,0.00,,SCT,0.00,664.00,VWS V14.01,2013-07-10 14:22:00,
2013-07-10 09:28:00,63.7,56.4,29.93,WSW,248,4.0,8.0,77,0.00,,SCT,0.00,90.00,VWS V14.01,2013-07-10 14:28:00,
2013-07-10 09:33:00,63.4,56.4,29.93,North,349,4.0,9.0,78,0.00,,SCT,0.00,330.00,VWS V14.01,2013-07-10 14:33:00,
2013-07-10 09:38:00,63.3,56.3,29.93,WNW,287,7.0,14.0,78,0.00,,SCT,0.00,654.00,VWS V14.01,2013-07-10 14:38:00,
2013-07-10 09:43:00,63.7,56.4,29.93,West,264,1.0,7.0,77,0.00,,SCT,0.00,654.00,VWS V14.01,2013-07-10 14:43:00,
2013-07-10 09:48:00,63.9,56.9,29.94,West,267,3.0,8.0,78,0.00,,SCT,0.00,239.00,VWS V14.01,2013-07-10 14:48:00,
2013-07-10 09:53:00,63.9,56.2,29.94,WNW,289,2.0,11.0,76,0.00,,SCT,0.00,789.00,VWS V14.01,2013-07-10 14:53:00,
2013-07-10 09:58:00,64.2,56.5,29.94,West,279,6.0,6.0,76,0.00,,SCT,0.00,788.00,VWS V14.01,2013-07-10 14:58:00,
2013-07-10 10:03:00,64.3,56.6,29.93,WSW,254,10.0,12.0,76,0.00,,SCT,0.00,178.00,VWS V14.01,2013-07-10 15:03:00,
2013-07-10 10:08:00,64.0,56.3,29.93,WSW,244,0.0,7.0,76,0.00,,SCT,0.00,137.00,VWS V14.01,2013-07-10 15:08:00,
2013-07-10 10:13:00,64.1,55.7,29.93,SW,233,4.0,7.0,74,0.00,,SCT,0.00,744.00,VWS V14.01,2013-07-10 15:13:00,
2013-07-10 10:18:00,64.4,56.3,29.94,WNW,284,11.0,11.0,75,0.00,,SCT,0.00,656.00,VWS V14.01,2013-07-10 15:18:00,
2013-07-10 10:23:00,64.7,55.1,29.94,NW,306,2.0,10.0,71,0.00,,SCT,0.00,752.00,VWS V14.01,2013-07-10 15:23:00,
2013-07-10 10:28:00,65.1,55.9,29.94,WNW,289,6.0,9.0,72,0.00,,SCT,0.00,763.00,VWS V14.01,2013-07-10 15:28:00,
2013-07-10 10:33:00,65.4,55.8,29.94,NW,324,2.0,9.0,71,0.00,,SCT,0.00,788.00,VWS V14.01,2013-07-10 15:33:00,
2013-07-10 10:38:00,65.7,56.4,29.93,NW,315,0.0,11.0,72,0.00,,SCT,0.00,819.00,VWS V14.01,2013-07-10 15:38:00,
2013-07-10 10:43:00,66.2,56.5,29.93,West,273,5.0,7.0,71,0.00,,SCT,0.00,879.00,VWS V14.01,2013-07-10 15:43:00,
2013-07-10 10:48:00,66.2,55.7,29.94,West,278,0.0,9.0,69,0.00,,SCT,0.00,192.00,VWS V14.01,2013-07-10 15:48:00,
2013-07-10 10:54:00,65.9,55.0,29.94,NW,325,7.0,19.0,68,0.00,,SCT,0.00,872.00,VWS V14.01,2013-07-10 15:54:00,
2013-07-10 10:59:00,66.0,56.0,29.94,WNW,300,1.0,5.0,70,0.00,,SCT,0.00,171.00,VWS V14.01,2013-07-10 15:59:00,
2013-07-10 11:04:00,66.3,55.8,29.94,NNW,338,6.0,7.0,69,0.00,,SCT,0.00,232.00,VWS V14.01,2013-07-10 16:04:00,
2013-07-10 11:09:00,66.5,55.2,29.94,NNW,340,9.0,9.0,67,0.00,,SCT,0.00,209.00,VWS V14.01,2013-07-10 16:09:00,
2013-07-10 11:14:00,66.7,55.8,29.94,WSW,258,4.0,9.0,68,0.00,,SCT,0.00,882.00,VWS V14.01,2013-07-10 16:14:00,
2013-07-10 11:19:00,67.0,55.7,29.95,WSW,248,5.0,7.0,67,0.00,,SCT,0.00,891.00,VWS V14.01,2013-07-10 16:19:00,
2013-07-10 11:24:00,67.0,54.9,29.95,WNW,303,4.0,6.0,65,0.00,,SCT,0.00,916.00,VWS V14.01,2013-07-10 16:24:00,
2013-07-10 11:29:00,67.4,56.1,29.95,WNW,289,3.0,12.0,67,0.00,,SCT,0.00,976.00,VWS V14.01,2013-07-10 16:29:00,
2013-07-10 11:34:00,67.9,56.5,29.95,WNW,302,0.0,9.0,67,0.00,,SCT,0.00,928.00,VWS V14.01,2013-07-10 16:34:00,
2013-07-10 11:39:00,68.1,55.0,29.95,NNE,29,0.0,12.0,63,0.00,,SCT,0.00,1009.00,VWS V14.01,2013-07-10 16:39:00,
2013-07-10 11:44:00,68.3,55.7,29.95,West,273,5.0,12.0,64,0.00,,SCT,0.00,287.00,VWS V14.01,2013-07-10 16:44:00,
2013-07-10 11:49:00,68.1,55.5,29.96,North,11,5.0,6.0,64,0.00,,SCT,0.00,218.00,VWS V14.01,2013-07-10 16:49:00,
2013-07-10 11:54:00,67.5,54.0,29.96,NNW,340,3.0,11.0,62,0.00,,SCT,0.00,197.00,VWS V14.01,2013-07-10 16:54:00,
2013-07-10 11:59:00,66.9,53.9,29.96,West,265,3.0,13.0,63,0.00,,SCT,0.00,1028.00,VWS V14.01,2013-07-10 16:59:00,
2013-07-10 12:04:00,66.9,54.8,29.96,NW,309,3.0,9.0,65,0.00,,SCT,0.00,188.00,VWS V14.01,2013-07-10 17:04:00,
2013-07-10 12:09:00,66.7,54.6,29.97,WNW,284,6.0,6.0,65,0.00,,SCT,0.00,227.00,VWS V14.01,2013-07-10 17:09:00,
2013-07-10 12:14:00,66.3,55.4,29.97,West,279,0.0,10.0,68,0.00,,SCT,0.00,204.00,VWS V14.01,2013-07-10 17:14:00,
2013-07-10 12:19:00,66.8,54.7,29.97,WNW,303,2.0,16.0,65,0.00,,SCT,0.00,1007.00,VWS V14.01,2013-07-10 17:19:00,
2013-07-10 12:24:00,67.2,53.8,29.97,NW,309,0.0,9.0,62,0.00,,SCT,0.00,1042.00,VWS V14.01,2013-07-10 17:24:00,
2013-07-10 12:29:00,67.0,54.4,29.97,WNW,290,10.0,14.0,64,0.00,,SCT,0.00,271.00,VWS V14.01,2013-07-10 17:29:00,
2013-07-10 12:34:00,67.2,55.5,29.97,NW,316,5.0,9.0,66,0.00,,SCT,0.00,1041.00,VWS V14.01,2013-07-10 17:34:00,
2013-07-10 12:39:00,67.7,54.2,29.97,NW,321,0.0,18.0,62,0.00,,SCT,0.00,1090.00,VWS V14.01,2013-07-10 17:39:00,
2013-07-10 12:44:00,68.2,54.7,29.97,SSW,202,0.0,7.0,62,0.00,,SCT,0.00,264.00,VWS V14.01,2013-07-10 17:44:00,
2013-07-10 12:50:00,68.3,55.7,29.97,West,280,2.0,8.0,64,0.00,,SCT,0.00,1076.00,VWS V14.01,2013-07-10 17:50:00,
2013-07-10 12:55:00,68.3,55.7,29.97,WNW,286,3.0,9.0,64,0.00,,SCT,0.00,329.00,VWS V14.01,2013-07-10 17:55:00,
2013-07-10 13:00:00,68.0,54.5,29.97,WNW,297,5.0,17.0,62,0.00,,SCT,0.00,392.00,VWS V14.01,2013-07-10 18:00:00,
2013-07-10 13:05:00,67.9,54.4,29.97,NW,309,4.0,8.0,62,0.00,,SCT,0.00,1004.00,VWS V14.01,2013-07-10 18:05:00,
2013-07-10 13:10:00,68.6,53.7,29.97,NNW,340,2.0,10.0,59,0.00,,SCT,0.00,302.00,VWS V14.01,2013-07-10 18:10:00,
2013-07-10 13:15:00,68.8,54.8,29.97,West,272,5.0,8.0,61,0.00,,SCT,0.00,1086.00,VWS V14.01,2013-07-10 18:15:00,
2013-07-10 13:20:00,69.1,55.1,29.96,West,281,4.0,12.0,61,0.00,,SCT,0.00,1169.00,VWS V14.01,2013-07-10 18:20:00,
2013-07-10 13:25:00,69.0,55.9,29.97,West,277,6.0,9.0,63,0.00,,SCT,0.00,230.00,VWS V14.01,2013-07-10 18:25:00,
2013-07-10 13:30:00,68.6,55.5,29.97,West,275,6.0,7.0,63,0.00,,SCT,0.00,209.00,VWS V14.01,2013-07-10 18:30:00,
2013-07-10 13:35:00,68.8,54.4,29.97,North,355,5.0,12.0,60,0.00,,SCT,0.00,1071.00,VWS V14.01,2013-07-10 18:35:00,
2013-07-10 13:40:00,68.6,53.7,29.97,WSW,240,5.0,17.0,59,0.00,,SCT,0.00,1018.00,VWS V14.01,2013-07-10 18:40:00,
2013-07-10 13:45:00,69.1,55.1,29.97,North,350,5.0,15.0,61,0.00,,SCT,0.00,1049.00,VWS V14.01,2013-07-10 18:45:00,
2013-07-10 13:50:00,69.2,54.7,29.97,West,275,1.0,11.0,60,0.00,,SCT,0.00,388.00,VWS V14.01,2013-07-10 18:50:00,
2013-07-10 13:55:00,68.8,53.9,29.97,WSW,256,9.0,9.0,59,0.00,,SCT,0.00,341.00,VWS V14.01,2013-07-10 18:55:00,
2013-07-10 14:00:00,68.7,54.3,29.97,North,355,6.0,10.0,60,0.00,,SCT,0.00,341.00,VWS V14.01,2013-07-10 19:00:00,
2013-07-10 14:05:00,69.2,55.2,29.96,North,9,4.0,7.0,61,0.00,,SCT,0.00,1227.00,VWS V14.01,2013-07-10 19:05:00,
2013-07-10 14:11:00,69.2,55.6,29.97,WNW,302,6.0,10.0,62,0.00,,SCT,0.00,274.00,VWS V14.01,2013-07-10 19:11:00,
2013-07-10 14:16:00,69.5,54.6,29.96,WNW,291,5.0,10.0,59,0.00,,SCT,0.00,1011.00,VWS V14.01,2013-07-10 19:16:00,
2013-07-10 14:21:00,70.0,56.0,29.96,WNW,302,3.0,7.0,61,0.00,,SCT,0.00,306.00,VWS V14.01,2013-07-10 19:21:00,
2013-07-10 14:26:00,69.7,54.3,29.96,West,269,6.0,13.0,58,0.00,,SCT,0.00,960.00,VWS V14.01,2013-07-10 19:26:00,
2013-07-10 14:31:00,69.8,54.4,29.96,West,274,1.0,11.0,58,0.00,,SCT,0.00,1078.00,VWS V14.01,2013-07-10 19:31:00,
2013-07-10 14:36:00,70.2,55.2,29.96,NNW,329,2.0,7.0,59,0.00,,SCT,0.00,990.00,VWS V14.01,2013-07-10 19:36:00,
2013-07-10 14:41:00,70.4,54.9,29.96,West,269,7.0,9.0,58,0.00,,SCT,0.00,381.00,VWS V14.01,2013-07-10 19:41:00,
2013-07-10 14:46:00,70.7,54.7,29.96,WSW,248,5.0,10.0,57,0.00,,SCT,0.00,294.00,VWS V14.01,2013-07-10 19:46:00,
2013-07-10 14:51:00,70.3,55.8,29.96,West,273,2.0,10.0,60,0.00,,SCT,0.00,294.00,VWS V14.01,2013-07-10 19:51:00,
2013-07-10 14:56:00,70.6,55.6,29.96,West,267,0.0,6.0,59,0.00,,SCT,0.00,946.00,VWS V14.01,2013-07-10 19:56:00,
2013-07-10 15:01:00,70.9,55.4,29.96,WNW,292,8.0,8.0,58,0.00,,SCT,0.00,974.00,VWS V14.01,2013-07-10 20:01:00,
2013-07-10 15:06:00,71.2,55.7,29.96,WNW,303,4.0,4.0,58,0.00,,SCT,0.00,933.00,VWS V14.01,2013-07-10 20:06:00,
2013-07-10 15:11:00,71.1,54.6,29.95,WNW,289,1.0,11.0,56,0.00,,SCT,0.00,933.00,VWS V14.01,2013-07-10 20:11:00,
2013-07-10 15:16:00,71.1,55.6,29.95,NNW,344,5.0,10.0,58,0.00,,SCT,0.00,916.00,VWS V14.01,2013-07-10 20:16:00,
2013-07-10 15:22:00,70.8,55.3,29.95,North,5,5.0,12.0,58,0.00,,SCT,0.00,905.00,VWS V14.01,2013-07-10 20:22:00,
2013-07-10 15:27:00,71.1,54.6,29.95,WSW,238,1.0,12.0,56,0.00,,SCT,0.00,983.00,VWS V14.01,2013-07-10 20:27:00,
2013-07-10 15:33:00,70.9,54.9,29.95,WNW,293,1.0,7.0,57,0.00,,SCT,0.00,933.00,VWS V14.01,2013-07-10 20:33:00,
2013-07-10 15:38:00,71.1,55.1,29.95,WNW,283,4.0,8.0,57,0.00,,SCT,0.00,907.00,VWS V14.01,2013-07-10 20:38:00,
2013-07-10 15:43:00,71.5,55.0,29.95,WNW,285,6.0,11.0,56,0.00,,SCT,0.00,854.00,VWS V14.01,2013-07-10 20:43:00,
2013-07-10 15:48:00,71.5,54.5,29.95,NW,322,3.0,10.0,55,0.00,,SCT,0.00,828.00,VWS V14.01,2013-07-10 20:48:00,
2013-07-10 15:53:00,71.7,55.2,29.95,WNW,296,5.0,12.0,56,0.00,,SCT,0.00,860.00,VWS V14.01,2013-07-10 20:53:00,
2013-07-10 15:59:00,71.8,53.8,29.95,North,5,4.0,9.0,53,0.00,,SCT,0.00,817.00,VWS V14.01,2013-07-10 20:59:00,
2013-07-10 16:04:00,71.7,54.7,29.95,WNW,294,1.0,8.0,55,0.00,,SCT,0.00,798.00,VWS V14.01,2013-07-10 21:04:00,
2013-07-10 16:09:00,71.8,54.8,29.95,NNE,33,5.0,6.0,55,0.00,,SCT,0.00,773.00,VWS V14.01,2013-07-10 21:09:00,
2013-07-10 16:14:00,71.9,55.4,29.95,NNW,341,5.0,10.0,56,0.00,,SCT,0.00,816.00,VWS V14.01,2013-07-10 21:14:00,
2013-07-10 16:19:00,71.9,55.4,29.95,WNW,286,3.0,7.0,56,0.00,,SCT,0.00,793.00,VWS V14.01,2013-07-10 21:19:00,
2013-07-10 16:24:00,72.2,55.7,29.95,WNW,289,1.0,6.0,56,0.00,,SCT,0.00,773.00,VWS V14.01,2013-07-10 21:24:00,
2013-07-10 16:29:00,72.5,56.9,29.94,North,355,5.0,9.0,58,0.00,,SCT,0.00,722.00,VWS V14.01,2013-07-10 21:29:00,
2013-07-10 16:34:00,72.6,56.0,29.95,SW,228,0.0,5.0,56,0.00,,SCT,0.00,712.00,VWS V14.01,2013-07-10 21:34:00,
2013-07-10 16:39:00,72.3,54.2,29.94,North,360,2.0,9.0,53,0.00,,SCT,0.00,705.00,VWS V14.01,2013-07-10 21:39:00,
2013-07-10 16:44:00,72.3,54.7,29.94,WSW,253,6.0,10.0,54,0.00,,SCT,0.00,696.00,VWS V14.01,2013-07-10 21:44:00,
2013-07-10 16:49:00,72.4,55.3,29.94,WNW,300,2.0,7.0,55,0.00,,SCT,0.00,682.00,VWS V14.01,2013-07-10 21:49:00,
2013-07-10 16:54:00,72.7,54.6,29.94,WNW,284,4.0,7.0,53,0.00,,SCT,0.00,657.00,VWS V14.01,2013-07-10 21:54:00,
2013-07-10 16:59:00,72.7,56.1,29.94,WNW,284,3.0,12.0,56,0.00,,SCT,0.00,680.00,VWS V14.01,2013-07-10 21:59:00,
2013-07-10 17:04:00,72.9,55.8,29.94,West,281,0.0,8.0,55,0.00,,SCT,0.00,638.00,VWS V14.01,2013-07-10 22:04:00,
2013-07-10 17:09:00,72.9,56.3,29.94,WNW,297,6.0,9.0,56,0.00,,SCT,0.00,645.00,VWS V14.01,2013-07-10 22:09:00,
2013-07-10 17:14:00,72.9,54.8,29.94,WNW,296,3.0,8.0,53,0.00,,SCT,0.00,601.00,VWS V14.01,2013-07-10 22:14:00,
2013-07-10 17:19:00,72.9,54.3,29.94,WNW,296,0.0,5.0,52,0.00,,SCT,0.00,596.00,VWS V14.01,2013-07-10 22:19:00,
2013-07-10 17:24:00,72.8,55.2,29.94,West,267,0.0,3.0,54,0.00,,SCT,0.00,573.00,VWS V14.01,2013-07-10 22:24:00,
2013-07-10 17:29:00,72.7,55.1,29.94,SSW,203,0.0,12.0,54,0.00,,SCT,0.00,563.00,VWS V14.01,2013-07-10 22:29:00,
2013-07-10 17:34:00,72.8,56.7,29.94,West,263,4.0,6.0,57,0.00,,SCT,0.00,547.00,VWS V14.01,2013-07-10 22:34:00,
2013-07-10 17:39:00,72.7,54.6,29.94,West,266,1.0,7.0,53,0.00,,SCT,0.00,403.00,VWS V14.01,2013-07-10 22:39:00,
2013-07-10 17:45:00,72.7,54.6,29.94,WNW,290,0.0,9.0,53,0.00,,SCT,0.00,520.00,VWS V14.01,2013-07-10 22:45:00,
2013-07-10 17:50:00,72.8,54.7,29.94,NW,318,3.0,10.0,53,0.00,,SCT,0.00,513.00,VWS V14.01,2013-07-10 22:50:00,
2013-07-10 17:55:00,72.8,55.7,29.94,NW,310,0.0,8.0,55,0.00,,SCT,0.00,496.00,VWS V14.01,2013-07-10 22:55:00,
2013-07-10 18:00:00,72.8,54.7,29.94,NW,311,5.0,5.0,53,0.00,,SCT,0.00,466.00,VWS V14.01,2013-07-10 23:00:00,
2013-07-10 18:05:00,72.7,55.6,29.94,NW,324,0.0,5.0,55,0.00,,SCT,0.00,445.00,VWS V14.01,2013-07-10 23:05:00,
2013-07-10 18:10:00,72.7,54.6,29.94,West,277,3.0,7.0,53,0.00,,SCT,0.00,432.00,VWS V14.01,2013-07-10 23:10:00,
2013-07-10 18:15:00,72.8,54.7,29.94,NNW,345,5.0,5.0,53,0.00,,SCT,0.00,415.00,VWS V14.01,2013-07-10 23:15:00,
2013-07-10 18:20:00,72.7,54.6,29.95,WNW,300,5.0,9.0,53,0.00,,SCT,0.00,401.00,VWS V14.01,2013-07-10 23:20:00,
2013-07-10 18:25:00,72.8,55.2,29.94,WNW,298,4.0,7.0,54,0.00,,SCT,0.00,390.00,VWS V14.01,2013-07-10 23:25:00,
2013-07-10 18:30:00,72.7,54.1,29.94,WNW,298,3.0,6.0,52,0.00,,SCT,0.00,367.00,VWS V14.01,2013-07-10 23:30:00,
2013-07-10 18:35:00,72.6,55.0,29.94,NW,321,3.0,11.0,54,0.00,,SCT,0.00,352.00,VWS V14.01,2013-07-10 23:35:00,
2013-07-10 18:40:00,72.5,54.9,29.94,WNW,291,0.0,6.0,54,0.00,,SCT,0.00,339.00,VWS V14.01,2013-07-10 23:40:00,
2013-07-10 18:45:00,72.7,56.1,29.94,NW,314,0.0,11.0,56,0.00,,SCT,0.00,318.00,VWS V14.01,2013-07-10 23:45:00,
2013-07-10 18:51:00,72.5,55.9,29.95,NNW,346,5.0,5.0,56,0.00,,SCT,0.00,306.00,VWS V14.01,2013-07-10 23:51:00,
2013-07-10 18:56:00,72.3,54.7,29.95,West,266,5.0,6.0,54,0.00,,SCT,0.00,279.00,VWS V14.01,2013-07-10 23:56:00,
2013-07-10 19:01:00,72.2,55.7,29.95,NW,317,0.0,6.0,56,0.00,,SCT,0.00,260.00,VWS V14.01,2013-07-11 00:01:00,
2013-07-10 19:06:00,72.1,57.0,29.95,NW,320,0.0,0.0,59,0.00,,SCT,0.00,230.00,VWS V14.01,2013-07-11 00:06:00,
2013-07-10 19:11:00,71.8,56.2,29.95,NW,313,1.0,4.0,58,0.00,,SCT,0.00,192.00,VWS V14.01,2013-07-11 00:11:00,
2013-07-10 19:16:00,71.5,55.0,29.95,NW,312,0.0,3.0,56,0.00,,SCT,0.00,165.00,VWS V14.01,2013-07-11 00:16:00,
2013-07-10 19:21:00,71.2,55.2,29.95,WNW,288,0.0,0.0,57,0.00,,SCT,0.00,188.00,VWS V14.01,2013-07-11 00:21:00,
2013-07-10 19:26:00,71.0,56.9,29.95,NW,315,0.0,0.0,61,0.00,,SCT,0.00,169.00,VWS V14.01,2013-07-11 00:26:00,
2013-07-10 19:31:00,70.5,57.8,29.95,NW,321,0.0,0.0,64,0.00,,SCT,0.00,158.00,VWS V14.01,2013-07-11 00:31:00,
2013-07-10 19:37:00,70.3,58.0,29.95,NW,318,0.0,0.0,65,0.00,,SCT,0.00,134.00,VWS V14.01,2013-07-11 00:37:00,
2013-07-10 19:42:00,69.9,58.0,29.95,NW,318,0.0,0.0,66,0.00,,SCT,0.00,116.00,VWS V14.01,2013-07-11 00:42:00,
2013-07-10 19:47:00,68.7,57.3,29.95,NW,318,0.0,0.0,67,0.00,,SCT,0.00,58.00,VWS V14.01,2013-07-11 00:47:00,
2013-07-10 19:52:00,67.8,56.5,29.95,NW,318,0.0,0.0,67,0.00,,SCT,0.00,63.00,VWS V14.01,2013-07-11 00:52:00,
2013-07-10 19:57:00,67.2,56.3,29.95,NW,318,0.0,0.0,68,0.00,,SCT,0.00,33.00,VWS V14.01,2013-07-11 00:57:00,
2013-07-10 20:02:00,66.7,56.2,29.95,NW,318,0.0,0.0,69,0.00,,SCT,0.00,28.00,VWS V14.01,2013-07-11 01:02:00,
2013-07-10 20:07:00,66.2,55.7,29.95,NW,318,0.0,0.0,69,0.00,,SCT,0.00,23.00,VWS V14.01,2013-07-11 01:07:00,
2013-07-10 20:12:00,65.9,55.8,29.95,NW,318,0.0,0.0,70,0.00,,SCT,0.00,19.00,VWS V14.01,2013-07-11 01:12:00,
2013-07-10 20:17:00,65.4,55.8,29.95,NW,318,0.0,0.0,71,0.00,,SCT,0.00,18.00,VWS V14.01,2013-07-11 01:17:00,
2013-07-10 20:22:00,65.2,56.0,29.95,NW,318,0.0,0.0,72,0.00,,SCT,0.00,16.00,VWS V14.01,2013-07-11 01:22:00,
2013-07-10 20:27:00,64.8,56.0,29.95,NW,318,0.0,0.0,73,0.00,,SCT,0.00,16.00,VWS V14.01,2013-07-11 01:27:00,
2013-07-10 20:32:00,64.6,56.5,29.95,NW,318,0.0,0.0,75,0.00,,SCT,0.00,12.00,VWS V14.01,2013-07-11 01:32:00,
2013-07-10 20:37:00,64.3,56.2,29.95,NW,318,0.0,0.0,75,0.00,,SCT,0.00,11.00,VWS V14.01,2013-07-11 01:37:00,
2013-07-10 20:42:00,64.2,56.1,29.95,NW,318,0.0,0.0,75,0.00,,SCT,0.00,7.00,VWS V14.01,2013-07-11 01:42:00,
2013-07-10 20:47:00,64.4,57.0,29.95,NW,318,0.0,0.0,77,0.00,,SCT,0.00,5.00,VWS V14.01,2013-07-11 01:47:00,
2013-07-10 20:52:00,64.4,56.7,29.95,NW,318,0.0,0.0,76,0.00,,SCT,0.00,0.00,VWS V14.01,2013-07-11 01:52:00,
2013-07-10 20:57:00,64.4,56.7,29.96,NW,318,0.0,0.0,76,0.00,,SCT,0.00,0.00,VWS V14.01,2013-07-11 01:57:00,
2013-07-10 21:02:00,64.3,56.6,29.96,NW,318,0.0,0.0,76,0.00,,SCT,0.00,0.00,VWS V14.01,2013-07-11 02:02:00,
2013-07-10 21:07:00,64.2,56.5,29.96,NW,318,0.0,0.0,76,0.00,,SCT,0.00,0.00,VWS V14.01,2013-07-11 02:07:00,
2013-07-10 21:12:00,64.1,56.8,29.96,NW,318,0.0,0.0,77,0.00,,SCT,0.00,0.00,VWS V14.01,2013-07-11 02:12:00,
2013-07-10 21:17:00,64.0,56.7,29.96,NW,318,0.0,0.0,77,0.00,,SCT,0.00,0.00,VWS V14.01,2013-07-11 02:17:00,
2013-07-10 21:22:00,63.8,56.5,29.96,NW,318,0.0,0.0,77,0.00,,SCT,0.00,0.00,VWS V14.01,2013-07-11 02:22:00,
2013-07-10 21:28:00,63.6,56.3,29.96,NW,318,0.0,0.0,77,0.00,,SCT,0.00,0.00,VWS V14.01,2013-07-11 02:28:00,
2013-07-10 21:33:00,63.3,56.0,29.97,NW,318,0.0,0.0,77,0.00,,SCT,0.00,0.00,VWS V14.01,2013-07-11 02:33:00,
2013-07-10 21:38:00,63.1,55.8,29.97,NW,318,0.0,0.0,77,0.00,,SCT,0.00,0.00,VWS V14.01,2013-07-11 02:38:00,
2013-07-10 21:43:00,63.0,56.0,29.97,NW,318,0.0,0.0,78,0.00,,SCT,0.00,0.00,VWS V14.01,2013-07-11 02:43:00,
2013-07-10 21:48:00,62.8,55.8,29.97,NW,318,0.0,0.0,78,0.00,,SCT,0.00,0.00,VWS V14.01,2013-07-11 02:48:00,
2013-07-10 21:53:00,62.6,56.0,29.97,NW,318,0.0,0.0,79,0.00,,SCT,0.00,0.00,VWS V14.01,2013-07-11 02:53:00,
2013-07-10 21:58:00,62.5,56.2,29.97,NW,318,0.0,0.0,80,0.00,,SCT,0.00,0.00,VWS V14.01,2013-07-11 02:58:00,
2013-07-10 22:03:00,62.3,56.4,29.97,NW,317,0.0,0.0,81,0.00,,SCT,0.00,0.00,VWS V14.01,2013-07-11 03:03:00,
2013-07-10 22:08:00,62.1,56.2,29.98,NW,317,0.0,0.0,81,0.00,,SCT,0.00,0.00,VWS V14.01,2013-07-11 03:08:00,
2013-07-10 22:13:00,62.0,56.5,29.98,NW,318,0.0,0.0,82,0.00,,SCT,0.00,0.00,VWS V14.01,2013-07-11 03:13:00,
2013-07-10 22:18:00,61.8,56.2,29.98,NW,318,0.0,0.0,82,0.00,,SCT,0.00,0.00,VWS V14.01,2013-07-11 03:18:00,
2013-07-10 22:23:00,61.6,56.4,29.98,NW,318,0.0,0.0,83,0.00,,SCT,0.00,0.00,VWS V14.01,2013-07-11 03:23:00,
2013-07-10 22:28:00,61.5,56.3,29.98,NW,318,0.0,0.0,83,0.00,,SCT,0.00,0.00,VWS V14.01,2013-07-11 03:28:00,
2013-07-10 22:33:00,61.4,56.2,29.98,NW,318,0.0,0.0,83,0.00,,SCT,0.00,0.00,VWS V14.01,2013-07-11 03:33:00,
2013-07-10 22:38:00,61.3,56.1,29.98,NW,318,0.0,0.0,83,0.00,,SCT,0.00,0.00,VWS V14.01,2013-07-11 03:38:00,
2013-07-10 22:43:00,61.1,55.9,29.98,NW,318,0.0,0.0,83,0.00,,SCT,0.00,0.00,VWS V14.01,2013-07-11 03:43:00,
2013-07-10 22:48:00,61.0,55.8,29.99,NW,318,0.0,0.0,83,0.00,,SCT,0.00,0.00,VWS V14.01,2013-07-11 03:48:00,
2013-07-10 22:54:00,60.9,55.7,29.99,NW,318,0.0,0.0,83,0.00,,SCT,0.00,0.00,VWS V14.01,2013-07-11 03:54:00,
2013-07-10 22:59:00,60.9,56.0,29.99,NW,318,0.0,0.0,84,0.00,,SCT,0.00,0.00,VWS V14.01,2013-07-11 03:59:00,
2013-07-10 23:01:00,60.9,56.0,29.98,NW,318,0.0,0.0,84,0.00,,SCT,0.00,0.00,VWS V14.01,2013-07-11 04:01:00,
2013-07-10 23:02:00,60.9,56.0,29.99,NW,317,0.0,0.0,84,0.00,,SCT,0.00,0.00,VWS V14.01,2013-07-11 04:02:00,
2013-07-10 23:06:00,60.9,55.7,29.99,NW,318,0.0,0.0,83,0.00,,SCT,0.00,0.00,VWS V14.01,2013-07-11 04:06:00,
2013-07-10 23:11:00,60.9,55.7,29.99,NW,318,0.0,0.0,83,0.00,,SCT,0.00,0.00,VWS V14.01,2013-07-11 04:11:00,
2013-07-10 23:17:00,60.9,55.7,29.99,NW,318,0.0,0.0,83,0.00,,SCT,0.00,0.00,VWS V14.01,2013-07-11 04:17:00,
2013-07-10 23:22:00,61.0,55.8,29.99,NW,318,0.0,0.0,83,0.00,,SCT,0.00,0.00,VWS V14.01,2013-07-11 04:22:00,
2013-07-10 23:27:00,61.0,55.8,29.99,NW,321,0.0,0.0,83,0.00,,SCT,0.00,0.00,VWS V14.01,2013-07-11 04:27:00,
2013-07-10 23:32:00,61.1,55.9,29.99,NNW,333,4.0,4.0,83,0.00,,SCT,0.00,0.00,VWS V14.01,2013-07-11 04:32:00,
2013-07-10 23:37:00,61.3,56.4,29.99,NNW,333,0.0,0.0,84,0.00,,SCT,0.00,0.00,VWS V14.01,2013-07-11 04:37:00,
2013-07-10 23:38:00,61.3,56.4,29.99,NNW,331,3.0,3.0,84,0.00,,SCT,0.00,0.00,VWS V14.01,2013-07-11 04:38:00,
2013-07-10 23:43:00,61.5,56.3,29.99,WNW,284,0.0,1.0,83,0.00,,SCT,0.00,0.00,VWS V14.01,2013-07-11 04:43:00,
2013-07-10 23:48:00,61.7,56.8,30.00,WNW,284,0.0,0.0,84,0.00,,SCT,0.00,0.00,VWS V14.01,2013-07-11 04:48:00,
2013-07-10 23:54:00,62.0,57.1,30.00,WNW,282,0.0,2.0,84,0.00,,SCT,0.00,0.00,VWS V14.01,2013-07-11 04:54:00,
2013-07-10 23:59:00,62.3,56.7,30.00,NW,306,0.0,1.0,82,0.00,,SCT,0.00,0.00,VWS V14.01,2013-07-11 04:59:00,